WSAP/QPG METAR and TAF weather

Enter ICAO airport designator
Station Type Date Time Source
WSAP METAR 2022/12/05 14:00 UTC NOAA

WSAP 051400Z 02003KT 9999 FEW018 SCT150 BKN300 26/24 Q1010


Station Type Date Time Source
WSAP Decoded METAR 2022/12/05 14:00 UTC NOAA

Singapore / Paya Lebar, Singapore (WSAP) 01-22N 103-55E 32M
Dec 05, 2022 - 09:00 AM EST / 2022.12.05 1400 UTC
Wind: from the NNE (020 degrees) at 3 MPH (3 KT):0
Visibility: greater than 7 mile(s):0
Sky conditions: mostly cloudy
Temperature: 78 F (26 C)
Dew Point: 75 F (24 C)
Relative Humidity: 88%
Pressure (altimeter): 29.83 in. Hg (1010 hPa)
ob: WSAP 051400Z 02003KT 9999 FEW018 SCT150 BKN300 26/24 Q1010
cycle: 14

Station Type Date Time Source
WSAP TAF 2022/12/05 12:12 UTC NOAA

TAF WSAP 051100Z 0512/0618 04005KT 9999 FEW015 BKN020
TEMPO 0606/0609 3000 TSRA FEW012CB BKN015

Example: see airport list